Pagrindinis puslapis
METAR-TAF:

METAR-TAF

Oro uostai :

Bolonija, Italija

platuma: 44-32N, ilguma: 011-18E, Aukštis: 36 m

Dabartinis oras

Ataskaita buvo paskelbta 3 valandos ir 6 minutes, ne 20:50 UTC
Vėjas 4 kt iš Pietų/Pietvakarių
Temperatūra 11°C
Drėgmė 43%
Slėgis 1028 hPa
Matomumas 10 km arba daugiau
nėra debesų žemiau 1500 m ir nėra kamuolinių lietaus debesų

METAR: LIPE 072050Z 20004KT CAVOK 11/M01 Q1028

Laikas: 01:56 (23:56 UTC)

Prognozė

Ataskaita buvo paskelbta 56 minutes, ne 23:00 UTC
Prognozė galioja nuo 08 metu 00 UTC su 08 metu 24 UTC
Vėjas 5 kt nuo kintamojo kryptimis
Matomumas 10 km arba daugiau
nėra debesų žemiau 1500 m ir nėra kamuolinių lietaus debesų

TAF: LIPE 072300Z 0800/0824 VRB05KT CAVOK

Orai ataskaitas ir orų prognozės (METAR, TAF).

turimą stotys yra geltonos ir raudonos taškus žemėlapyje.

Perkelti pele per norėdami pamatyti stoties vardą.

Tada spustelėkite, norėdami matyti oro stebėjimo ir prognozės.

Norėdami pakeisti žemėlapį: spustelėkite ant žalios mygtukų su juodo kryžiaus žemyn,; žalią mygtuką su brūkšneliu, jei norite nutolinti; arba žalių rodyklių gretimoms žemėlapius.


METAR-TAF: